Time;durP1;ratioP1;P1;durP2;ratioP2;P2;SDS_P1;SDS_P2;PMS_P1;PMS_P2;Temp;Humidity;BMP_temperature;BMP_pressure;BME280_temperature;BME280_humidity;BME280_pressure;Samples;Min_cycle;Max_cycle;Signal;HPM_P1;HPM_P2
2023/09/23 00:01:09;;;;;;;10.80;6.70;;;;;;;18.93;56.70;99535.07;107240;1257;72657;-41
2023/09/23 00:03:38;;;;;;;15.20;6.70;;;;;;;18.87;56.69;99529.88;107189;1257;60339;-39
2023/09/23 00:06:08;;;;;;;12.80;6.80;;;;;;;18.82;56.59;99537.80;107197;1257;60475;-39
2023/09/23 00:08:36;;;;;;;10.00;7.00;;;;;;;18.76;56.48;99535.98;107203;1257;72870;-39
2023/09/23 00:11:04;;;;;;;10.00;6.90;;;;;;;18.70;56.40;99534.41;107250;1257;67799;-39
2023/09/23 00:13:32;;;;;;;11.20;7.20;;;;;;;18.63;56.42;99534.08;107193;1257;72735;-39
2023/09/23 00:16:05;;;;;;;13.60;7.00;;;;;;;18.59;56.35;99537.81;107336;1257;60556;-39
2023/09/23 00:18:34;;;;;;;11.50;7.10;;;;;;;18.55;56.28;99535.89;107061;1257;60465;-39
2023/09/23 00:21:05;;;;;;;13.10;7.20;;;;;;;18.51;56.27;99542.88;107273;1257;73837;-39
2023/09/23 00:23:32;;;;;;;9.70;6.90;;;;;;;18.48;56.25;99542.54;107224;1257;67020;-39
2023/09/23 00:26:01;;;;;;;17.30;7.60;;;;;;;18.45;56.15;99543.98;107229;1257;71516;-39
2023/09/23 00:28:30;;;;;;;12.90;6.80;;;;;;;18.42;56.16;99538.83;107322;1257;61076;-39
2023/09/23 00:31:14;;;;;;;13.60;7.50;;;;;;;18.37;56.19;99532.83;107261;1257;60216;-39
2023/09/23 00:33:42;;;;;;;16.70;7.20;;;;;;;18.32;56.25;99531.55;107260;1257;73848;-39
2023/09/23 00:36:10;;;;;;;12.80;7.20;;;;;;;18.28;56.37;99531.13;107263;1257;66295;-39
2023/09/23 00:38:38;;;;;;;12.10;7.30;;;;;;;18.25;56.41;99532.55;107204;1257;72696;-39
2023/09/23 00:41:06;;;;;;;10.10;7.00;;;;;;;18.22;56.38;99528.82;107267;1257;60396;-39
2023/09/23 00:43:35;;;;;;;13.50;7.10;;;;;;;18.19;56.36;99528.77;107267;1257;60542;-39
2023/09/23 00:46:06;;;;;;;9.10;6.80;;;;;;;18.17;56.35;99529.48;107374;1257;73569;-39
2023/09/23 00:48:39;;;;;;;11.00;7.30;;;;;;;18.13;56.47;99526.55;107072;1265;67572;-39
2023/09/23 00:51:07;;;;;;;13.70;7.40;;;;;;;18.08;56.60;99527.54;107105;1257;71790;-39
2023/09/23 00:53:36;;;;;;;10.30;7.10;;;;;;;18.05;56.72;99525.84;107227;1257;60478;-39
2023/09/23 00:56:05;;;;;;;12.30;7.50;;;;;;;18.01;56.79;99527.92;107277;1257;60507;-39
2023/09/23 00:58:36;;;;;;;11.70;7.90;;;;;;;17.99;56.83;99530.05;107268;1257;73832;-39
2023/09/23 01:01:08;;;;;;;10.10;7.90;;;;;;;17.95;56.84;99532.04;107283;1257;67600;-39
2023/09/23 01:03:38;;;;;;;11.10;7.70;;;;;;;17.91;57.01;99533.16;107252;1257;72698;-39
2023/09/23 01:06:15;;;;;;;;;;;;;;;17.91;57.15;99535.38;107204;1257;60014;-39
2023/09/23 01:08:45;;;;;;;11.30;7.00;;;;;;;17.87;57.22;99540.79;107110;1257;60450;-39
2023/09/23 01:11:14;;;;;;;13.10;7.00;;;;;;;17.84;57.24;99542.87;107307;1257;73830;-39
2023/09/23 01:13:44;;;;;;;10.30;7.20;;;;;;;17.79;57.45;99541.49;107144;1257;66321;-39
2023/09/23 01:16:13;;;;;;;10.60;7.30;;;;;;;17.78;57.66;99546.11;107218;1257;71130;-39
2023/09/23 01:18:44;;;;;;;10.80;7.70;;;;;;;17.75;57.71;99547.17;107257;1257;60122;-39
2023/09/23 01:21:13;;;;;;;10.90;7.30;;;;;;;17.71;57.88;99546.64;107206;1257;60475;-39
2023/09/23 01:23:43;;;;;;;9.70;7.20;;;;;;;17.67;57.97;99544.79;107207;1257;72070;-39
2023/09/23 01:26:12;;;;;;;11.50;7.30;;;;;;;17.64;58.04;99550.52;107221;1258;67930;-39
2023/09/23 01:28:39;;;;;;;17.20;7.90;;;;;;;17.60;58.16;99555.64;107224;1257;72694;-39
2023/09/23 01:31:07;;;;;;;13.80;8.30;;;;;;;17.57;58.34;99557.83;107277;1257;60553;-39
2023/09/23 01:33:36;;;;;;;9.80;7.40;;;;;;;17.53;58.55;99558.63;107057;1257;60489;-39
2023/09/23 01:36:05;;;;;;;12.80;7.80;;;;;;;17.51;58.55;99559.90;107210;1257;73811;-39
2023/09/23 01:38:33;;;;;;;14.40;7.10;;;;;;;17.49;58.70;99564.85;107262;1257;68104;-39
2023/09/23 01:41:00;;;;;;;12.90;8.10;;;;;;;17.46;58.70;99563.14;107220;1257;71735;-39
2023/09/23 01:43:29;;;;;;;14.80;7.70;;;;;;;17.43;58.87;99563.16;107199;1257;60321;-43
2023/09/23 01:46:02;;;;;;;14.00;7.40;;;;;;;17.38;58.98;99563.66;107272;1257;60358;-40
2023/09/23 01:48:30;;;;;;;11.20;7.40;;;;;;;17.34;59.12;99563.35;107058;1257;73911;-40
2023/09/23 01:51:01;;;;;;;13.70;7.50;;;;;;;17.30;59.25;99560.10;107064;1257;67887;-39
2023/09/23 01:53:28;;;;;;;11.00;7.30;;;;;;;17.25;59.43;99558.55;107018;1262;72708;-39
2023/09/23 01:55:56;;;;;;;13.60;7.20;;;;;;;17.22;59.62;99559.43;107009;1257;60340;-39
2023/09/23 01:58:24;;;;;;;11.50;7.30;;;;;;;17.20;59.71;99559.52;107027;1257;60321;-39
2023/09/23 02:00:54;;;;;;;13.70;7.00;;;;;;;17.24;59.69;99558.16;107188;1257;72623;-39
2023/09/23 02:03:23;;;;;;;11.50;6.90;;;;;;;17.26;59.76;99562.54;107213;1257;67782;-39
2023/09/23 02:05:52;;;;;;;13.00;7.30;;;;;;;17.25;59.81;99562.38;107215;1257;72676;-38
2023/09/23 02:08:19;;;;;;;12.80;7.60;;;;;;;17.24;59.95;99562.77;107211;1257;60472;-39
2023/09/23 02:10:48;;;;;;;16.50;7.90;;;;;;;17.23;59.94;99566.47;107029;1257;60486;-39
2023/09/23 02:13:17;;;;;;;13.40;7.70;;;;;;;17.21;59.99;99569.69;107189;1257;74047;-39
2023/09/23 02:15:45;;;;;;;11.40;7.30;;;;;;;17.18;60.13;99571.20;107089;1257;67686;-39
2023/09/23 02:18:14;;;;;;;12.90;7.20;;;;;;;17.16;60.14;99575.66;107216;1257;72687;-39
2023/09/23 02:20:43;;;;;;;11.90;7.40;;;;;;;17.14;60.26;99579.66;107224;1262;60456;-38
2023/09/23 02:23:11;;;;;;;15.00;7.40;;;;;;;17.10;60.39;99575.45;107197;1257;60454;-39
2023/09/23 02:25:39;;;;;;;15.10;7.70;;;;;;;17.06;60.46;99579.54;107210;1257;73858;-39
2023/09/23 02:28:07;;;;;;;15.10;8.00;;;;;;;17.03;60.63;99578.30;107073;1259;66806;-40
2023/09/23 02:30:34;;;;;;;12.40;7.50;;;;;;;17.01;60.72;99574.77;107059;1257;72693;-40
2023/09/23 02:33:03;;;;;;;11.10;6.90;;;;;;;16.99;60.71;99578.02;107187;1257;60434;-40
2023/09/23 02:35:30;;;;;;;12.80;7.70;;;;;;;16.95;60.86;99577.38;107312;1257;60030;-40
2023/09/23 02:37:59;;;;;;;15.30;7.50;;;;;;;16.90;60.98;99579.04;107211;1257;72880;-39
2023/09/23 02:40:27;;;;;;;13.00;7.00;;;;;;;16.88;61.09;99578.98;107265;1258;66286;-40
2023/09/23 02:42:57;;;;;;;14.10;6.90;;;;;;;16.89;61.15;99576.38;107208;1260;72685;-40
2023/09/23 02:45:25;;;;;;;13.30;7.20;;;;;;;16.88;61.16;99579.45;107193;1259;60549;-40
2023/09/23 02:47:53;;;;;;;10.20;7.20;;;;;;;16.85;61.33;99581.95;107228;1257;60323;-39
2023/09/23 02:50:21;;;;;;;12.20;7.50;;;;;;;16.81;61.50;99581.73;107190;1258;73885;-40
2023/09/23 02:52:49;;;;;;;11.90;7.20;;;;;;;16.77;61.57;99578.23;107075;1265;67614;-40
2023/09/23 02:55:20;;;;;;;9.30;6.70;;;;;;;16.76;61.60;99582.98;107238;1260;71466;-39
2023/09/23 02:57:49;;;;;;;13.30;7.40;;;;;;;16.76;61.62;99582.21;107094;1257;60367;-39
2023/09/23 03:00:21;;;;;;;11.90;7.40;;;;;;;16.74;61.66;99582.46;107240;1257;60043;-39
2023/09/23 03:02:54;;;;;;;13.60;7.20;;;;;;;16.70;61.73;99584.41;107236;1258;73905;-39
2023/09/23 03:05:31;;;;;;;10.10;7.60;;;;;;;16.66;61.87;99585.99;107168;1257;67452;-39
2023/09/23 03:08:00;;;;;;;11.90;7.50;;;;;;;16.61;62.05;99583.73;107255;1263;72657;-39
2023/09/23 03:10:34;;;;;;;10.00;6.50;;;;;;;16.56;62.27;99579.80;107205;1262;61706;-39
2023/09/23 03:13:04;;;;;;;11.40;6.50;;;;;;;16.58;62.23;99580.04;107243;1258;60253;-39
2023/09/23 03:15:51;;;;;;;12.00;6.40;;;;;;;16.64;62.21;99582.71;107206;1258;73994;-39
2023/09/23 03:18:28;;;;;;;9.70;6.80;;;;;;;16.66;62.23;99588.41;107194;1257;66778;-39
2023/09/23 03:21:00;;;;;;;12.00;7.00;;;;;;;16.67;62.25;99590.29;107230;1260;71204;-39
2023/09/23 03:23:27;;;;;;;11.60;7.10;;;;;;;16.69;62.28;99589.28;107080;1257;60345;-39
2023/09/23 03:25:56;;;;;;;10.50;6.80;;;;;;;16.68;62.32;99584.75;107178;1257;60460;-39
2023/09/23 03:28:24;;;;;;;11.40;7.30;;;;;;;16.68;62.35;99586.85;107266;1258;72647;-39
2023/09/23 03:31:01;;;;;;;12.40;7.20;;;;;;;16.68;62.32;99589.13;107246;1262;66665;-39
2023/09/23 03:33:30;;;;;;;12.70;7.10;;;;;;;16.67;62.36;99590.77;107211;1263;71144;-39
2023/09/23 03:35:58;;;;;;;10.40;7.40;;;;;;;16.65;62.41;99590.61;107207;1260;60335;-39
2023/09/23 03:38:28;;;;;;;9.50;7.00;;;;;;;16.64;62.49;99587.10;107049;1264;60583;-39
2023/09/23 03:40:59;;;;;;;10.00;8.10;;;;;;;16.61;62.49;99586.39;107246;1260;72972;-39
2023/09/23 03:43:27;;;;;;;11.70;7.00;;;;;;;16.58;62.82;99590.06;107053;1260;68030;-39
2023/09/23 03:45:55;;;;;;;12.30;6.10;;;;;;;16.60;63.01;99587.96;107170;1260;72666;-39
2023/09/23 03:48:25;;;;;;;11.50;6.80;;;;;;;16.65;62.92;99589.84;107192;1260;60335;-39
2023/09/23 03:50:53;;;;;;;8.00;6.30;;;;;;;16.65;63.05;99593.58;107076;1260;60503;-39
2023/09/23 03:53:21;;;;;;;13.60;7.00;;;;;;;16.66;63.08;99596.23;107202;1260;73850;-40
2023/09/23 03:55:52;;;;;;;10.90;6.90;;;;;;;16.67;63.02;99600.70;107236;1261;67614;-41
2023/09/23 03:58:20;;;;;;;11.00;6.80;;;;;;;16.69;63.02;99602.96;107258;1261;71287;-39
2023/09/23 04:00:47;;;;;;;9.70;6.80;;;;;;;16.69;62.97;99608.60;107264;1262;60332;-39
2023/09/23 04:03:17;;;;;;;13.50;7.70;;;;;;;16.68;63.08;99612.11;107045;1260;60465;-39
2023/09/23 04:05:57;;;;;;;11.80;6.80;;;;;;;16.67;63.15;99616.41;107231;1257;73873;-39
2023/09/23 04:08:26;;;;;;;;;;;;;;;16.64;63.27;99614.70;107067;1263;67861;-39
2023/09/23 04:10:54;;;;;;;9.50;6.40;;;;;;;16.61;63.39;99619.39;107282;1257;72746;-39
2023/09/23 04:13:22;;;;;;;11.10;6.10;;;;;;;16.61;63.55;99626.37;107199;1261;61678;-39
2023/09/23 04:15:49;;;;;;;11.50;6.30;;;;;;;16.67;63.52;99624.55;107071;1258;60510;-39
2023/09/23 04:18:18;;;;;;;14.10;6.60;;;;;;;16.75;63.48;99619.92;107038;1260;72985;-39
2023/09/23 04:20:48;;;;;;;12.30;7.20;;;;;;;16.79;63.50;99623.67;107211;1263;67588;-39
2023/09/23 04:23:16;;;;;;;12.40;7.10;;;;;;;16.83;63.55;99627.17;107233;1257;70476;-39
2023/09/23 04:25:44;;;;;;;12.20;6.60;;;;;;;16.89;63.61;99625.60;107252;1257;60786;-39
2023/09/23 04:28:11;;;;;;;10.60;6.30;;;;;;;16.94;63.62;99629.98;107278;1257;60437;-39
2023/09/23 04:30:39;;;;;;;12.00;6.50;;;;;;;17.00;63.49;99628.55;107267;1259;73888;-39
2023/09/23 04:33:07;;;;;;;12.90;6.60;;;;;;;17.03;63.44;99628.38;107281;1263;67903;-39
2023/09/23 04:35:35;;;;;;;10.60;6.50;;;;;;;17.06;63.45;99621.56;107257;1257;72737;-39
2023/09/23 04:38:03;;;;;;;11.80;6.90;;;;;;;17.10;63.46;99629.15;107007;1260;60511;-39
2023/09/23 04:40:31;;;;;;;11.90;6.20;;;;;;;17.13;63.38;99625.52;107248;1258;60069;-39
2023/09/23 04:43:00;;;;;;;12.40;5.80;;;;;;;17.21;63.16;99625.74;107332;1261;73913;-39
2023/09/23 04:45:27;;;;;;;7.60;5.60;;;;;;;17.30;62.91;99626.80;107303;1260;66429;-39
2023/09/23 04:47:55;;;;;;;9.70;6.90;;;;;;;17.29;63.02;99617.48;107217;1257;72841;-39
2023/09/23 04:50:24;;;;;;;9.40;6.20;;;;;;;17.41;62.90;99623.46;107213;1257;60563;-39
2023/09/23 04:52:51;;;;;;;8.70;6.70;;;;;;;17.48;62.73;99626.01;107304;1260;60474;-39
2023/09/23 04:55:21;;;;;;;12.30;6.40;;;;;;;17.53;62.52;99627.33;107289;1260;73921;-39
2023/09/23 04:57:49;;;;;;;11.00;5.90;;;;;;;17.57;62.53;99628.94;107284;1260;67670;-39
2023/09/23 05:00:18;;;;;;;10.50;6.80;;;;;;;17.59;62.61;99624.24;107300;1260;71394;-39
2023/09/23 05:02:49;;;;;;;8.70;6.10;;;;;;;17.61;62.77;99619.80;107258;1263;60988;-39
2023/09/23 05:05:18;;;;;;;9.00;6.00;;;;;;;17.63;62.72;99613.75;107235;1262;60444;-39
2023/09/23 05:07:46;;;;;;;13.00;6.50;;;;;;;17.65;62.91;99618.28;107290;1258;74112;-39
2023/09/23 05:10:14;;;;;;;10.50;5.90;;;;;;;17.69;63.10;99616.45;107049;1258;69844;-39
2023/09/23 05:12:43;;;;;;;7.90;5.70;;;;;;;17.79;62.94;99618.83;107217;1263;73002;-39
2023/09/23 05:15:14;;;;;;;10.50;6.00;;;;;;;17.89;63.07;99626.52;107234;1258;60429;-38
2023/09/23 05:17:46;;;;;;;11.30;5.70;;;;;;;17.88;63.06;99615.40;107067;1260;60337;-38
2023/09/23 05:20:19;;;;;;;10.60;5.80;;;;;;;18.00;62.98;99627.23;107235;1257;74002;-38
2023/09/23 05:22:48;;;;;;;9.70;5.80;;;;;;;18.06;63.00;99631.65;107248;1260;67645;-38
2023/09/23 05:25:16;;;;;;;9.10;5.80;;;;;;;18.16;63.13;99634.95;107109;1260;71430;-38
2023/09/23 05:27:44;;;;;;;11.80;5.90;;;;;;;18.25;63.12;99631.67;107221;1260;60415;-38
2023/09/23 05:30:12;;;;;;;8.30;5.40;;;;;;;18.34;62.90;99631.60;107046;1262;60438;-39
2023/09/23 05:32:40;;;;;;;11.00;5.80;;;;;;;18.42;62.89;99631.06;107044;1262;73904;-39
2023/09/23 05:35:10;;;;;;;10.40;5.20;;;;;;;18.50;63.14;99638.20;107249;1258;67404;-39
2023/09/23 05:37:39;;;;;;;9.90;5.00;;;;;;;18.63;63.15;99640.00;107177;1258;72778;-39
2023/09/23 05:40:10;;;;;;;9.60;4.90;;;;;;;18.77;62.78;99644.27;107250;1258;60469;-39
2023/09/23 05:42:38;;;;;;;6.00;4.90;;;;;;;18.84;62.34;99648.44;107228;1263;61222;-39
2023/09/23 05:45:08;;;;;;;7.00;4.70;;;;;;;18.91;62.48;99659.12;107062;1263;72654;-39
2023/09/23 05:47:36;;;;;;;6.90;4.60;;;;;;;18.98;62.14;99657.31;107336;1257;66203;-42
2023/09/23 05:50:07;;;;;;;10.00;5.10;;;;;;;19.04;62.15;99659.45;107296;1261;71686;-40
2023/09/23 05:52:36;;;;;;;8.30;5.00;;;;;;;19.09;62.16;99657.98;107252;1258;60326;-39
2023/09/23 05:55:04;;;;;;;6.70;5.10;;;;;;;19.14;62.14;99652.27;107213;1261;60417;-39
2023/09/23 05:57:34;;;;;;;8.40;4.50;;;;;;;19.22;62.37;99660.04;107250;1257;73891;-39
2023/09/23 06:00:05;;;;;;;8.30;4.90;;;;;;;19.28;62.46;99659.66;107258;1263;65297;-39
2023/09/23 06:02:33;;;;;;;8.50;4.50;;;;;;;19.33;62.24;99665.48;107014;1263;72731;-39
2023/09/23 06:05:02;;;;;;;7.20;4.00;;;;;;;19.39;62.26;99667.77;107017;1261;60387;-39
2023/09/23 06:07:31;;;;;;;7.30;3.70;;;;;;;19.50;62.03;99670.42;107262;1257;60462;-39
2023/09/23 06:09:59;;;;;;;6.20;4.00;;;;;;;19.64;61.75;99670.16;107243;1258;73818;-39
2023/09/23 06:12:29;;;;;;;8.20;3.80;;;;;;;19.71;61.43;99671.48;107099;1262;67560;-39
2023/09/23 06:14:58;;;;;;;8.00;4.00;;;;;;;19.77;61.19;99671.08;107046;1262;71456;-39
2023/09/23 06:17:27;;;;;;;9.20;4.90;;;;;;;19.83;61.32;99671.40;107248;1260;60428;-39
2023/09/23 06:19:56;;;;;;;5.60;3.90;;;;;;;19.89;61.40;99680.51;107334;1258;60556;-39
2023/09/23 06:22:24;;;;;;;9.80;4.30;;;;;;;19.95;60.78;99685.61;107229;1258;73865;-39
2023/09/23 06:24:52;;;;;;;6.90;4.20;;;;;;;20.01;60.52;99690.34;107398;1260;66654;-39
2023/09/23 06:27:20;;;;;;;7.30;4.30;;;;;;;20.06;60.29;99690.88;107584;1254;72696;-39
2023/09/23 06:29:47;;;;;;;8.30;4.50;;;;;;;20.13;60.11;99693.77;107581;1254;60402;-39
2023/09/23 06:32:15;;;;;;;9.30;4.20;;;;;;;20.19;59.91;99696.75;107591;1254;59584;-39
2023/09/23 06:34:43;;;;;;;8.20;4.50;;;;;;;20.26;60.01;99695.71;107376;1260;73851;-38
2023/09/23 06:37:10;;;;;;;6.20;4.10;;;;;;;20.33;59.79;99698.70;107604;1257;67561;-38
2023/09/23 06:39:38;;;;;;;6.10;4.20;;;;;;;20.41;59.90;99699.92;107449;1257;71415;-38
2023/09/23 06:42:06;;;;;;;6.40;4.40;;;;;;;20.49;59.60;99700.58;107434;1254;60270;-38
2023/09/23 06:44:33;;;;;;;5.10;4.40;;;;;;;20.56;59.79;99703.45;107620;1257;59728;-38
2023/09/23 06:47:01;;;;;;;7.70;4.00;;;;;;;20.64;59.60;99704.98;107412;1255;73637;-38
2023/09/23 06:49:30;;;;;;;11.90;4.00;;;;;;;20.79;59.39;99706.46;107641;1257;68030;-39
2023/09/23 06:51:57;;;;;;;5.60;3.60;;;;;;;20.94;58.84;99710.61;107285;1254;143606;-40
2023/09/23 06:56:24;;;;;;;7.10;3.80;;;;;;;21.10;58.63;99713.31;104327;1289;600268;-38
2023/09/23 06:58:52;;;;;;;6.40;3.90;;;;;;;21.18;58.36;99718.77;106691;1269;60062;-41
2023/09/23 07:01:21;;;;;;;9.30;4.20;;;;;;;21.29;57.99;99718.35;106710;1266;59318;-40
2023/09/23 07:03:49;;;;;;;8.40;4.10;;;;;;;21.40;57.70;99723.00;106778;1266;72622;-38
2023/09/23 07:06:17;;;;;;;7.10;4.40;;;;;;;21.49;57.07;99722.13;106695;1266;67733;-38
2023/09/23 07:08:45;;;;;;;7.10;3.80;;;;;;;21.58;56.91;99721.34;106612;1265;72970;-39
2023/09/23 07:11:13;;;;;;;6.40;4.70;;;;;;;21.69;56.74;99721.66;106646;1264;163787;-39
2023/09/23 07:13:41;;;;;;;8.00;4.50;;;;;;;21.81;56.10;99723.54;106874;1268;59404;-39
2023/09/23 07:16:14;;;;;;;7.00;4.70;;;;;;;21.91;55.25;99718.98;106868;1263;72201;-39
2023/09/23 07:18:43;;;;;;;9.40;4.60;;;;;;;22.02;55.47;99723.10;106891;1264;66967;-39
2023/09/23 07:21:11;;;;;;;6.40;4.10;;;;;;;22.14;54.63;99720.55;106815;1263;72664;-39
2023/09/23 07:23:39;;;;;;;7.80;4.50;;;;;;;22.24;53.51;99718.02;106802;1266;60093;-39
2023/09/23 07:26:07;;;;;;;5.10;4.00;;;;;;;22.35;53.19;99717.87;107309;1254;59234;-39
2023/09/23 07:28:35;;;;;;;7.90;4.70;;;;;;;22.43;52.08;99715.55;107330;1255;73086;-39
2023/09/23 07:31:02;;;;;;;5.40;3.80;;;;;;;22.48;52.19;99711.65;107335;1253;67777;-39
2023/09/23 07:33:30;;;;;;;9.90;4.60;;;;;;;22.52;51.89;99705.15;107279;1260;72680;-39
2023/09/23 07:35:57;;;;;;;6.80;4.50;;;;;;;22.57;51.44;99699.89;107322;1256;60070;-39
2023/09/23 07:38:26;;;;;;;6.40;3.70;;;;;;;22.62;51.23;99700.88;107335;1253;60009;-39
2023/09/23 07:40:54;;;;;;;5.90;4.00;;;;;;;22.68;51.06;99703.17;107278;1254;71241;-39
2023/09/23 07:43:22;;;;;;;6.70;4.00;;;;;;;22.76;51.21;99706.25;107359;1253;67603;-39
2023/09/23 07:45:52;;;;;;;6.80;3.90;;;;;;;22.82;50.76;99713.59;107327;1256;71880;-39
2023/09/23 07:48:20;;;;;;;7.40;4.40;;;;;;;22.85;50.81;99707.98;107351;1253;59640;-40
2023/09/23 07:50:48;;;;;;;11.80;4.00;;;;;;;22.86;50.72;99705.17;107393;1253;59631;-39
2023/09/23 07:53:15;;;;;;;6.10;4.30;;;;;;;22.88;50.96;99706.66;107319;1254;73065;-39
2023/09/23 07:55:43;;;;;;;9.70;4.70;;;;;;;22.91;50.82;99699.36;107356;1253;67582;-39
2023/09/23 07:58:11;;;;;;;12.30;4.80;;;;;;;22.95;50.83;99701.08;107315;1262;72678;-39
2023/09/23 08:00:39;;;;;;;8.70;4.70;;;;;;;22.99;50.87;99701.80;107332;1257;59734;-39
2023/09/23 08:03:08;;;;;;;8.70;5.00;;;;;;;23.01;50.92;99701.80;107315;1253;60211;-39
2023/09/23 08:05:36;;;;;;;9.40;5.10;;;;;;;23.03;50.39;99704.69;107350;1254;73039;-40
2023/09/23 08:08:04;;;;;;;10.10;4.50;;;;;;;23.02;50.14;99712.61;107349;1257;67618;-40
2023/09/23 08:10:32;;;;;;;6.20;4.20;;;;;;;22.98;49.91;99718.95;107327;1260;72687;-39
2023/09/23 08:12:59;;;;;;;9.50;4.70;;;;;;;22.90;49.95;99720.49;107312;1256;59465;-39
2023/09/23 08:15:27;;;;;;;20.30;5.00;;;;;;;22.85;50.06;99719.67;107295;1255;59491;-39
2023/09/23 08:17:55;;;;;;;8.70;4.30;;;;;;;22.83;49.81;99717.91;107283;1257;71842;-39
2023/09/23 08:20:23;;;;;;;10.80;5.00;;;;;;;22.83;49.99;99715.95;107271;1257;66986;-39
2023/09/23 08:22:53;;;;;;;7.00;4.00;;;;;;;22.88;50.14;99712.73;107283;1256;72673;-39
2023/09/23 08:25:25;;;;;;;8.20;4.20;;;;;;;22.95;49.68;99711.11;107286;1256;59836;-39
2023/09/23 08:27:53;;;;;;;6.00;4.30;;;;;;;23.07;49.07;99708.85;107301;1255;59743;-40
2023/09/23 08:30:21;;;;;;;12.00;4.80;;;;;;;23.18;49.23;99712.34;107329;1254;73107;-40
2023/09/23 08:32:49;;;;;;;8.60;3.90;;;;;;;23.33;48.96;99713.04;107303;1257;67885;-40
2023/09/23 08:35:17;;;;;;;6.80;4.50;;;;;;;23.50;48.34;99712.52;107291;1257;72614;-39
2023/09/23 08:37:45;;;;;;;9.80;4.70;;;;;;;23.66;47.75;99707.48;107251;1256;60045;-39
2023/09/23 08:40:15;;;;;;;7.70;4.30;;;;;;;23.82;47.58;99695.20;107291;1255;60047;-40
2023/09/23 08:42:43;;;;;;;6.80;4.00;;;;;;;23.99;46.90;99688.45;107127;1255;71857;-40
2023/09/23 08:45:11;;;;;;;7.20;3.90;;;;;;;24.12;46.49;99685.45;107274;1257;68356;-39
2023/09/23 08:47:38;;;;;;;11.00;3.80;;;;;;;24.24;45.98;99687.39;107330;1254;72692;-40
2023/09/23 08:50:08;;;;;;;7.60;4.40;;;;;;;24.34;46.09;99685.89;107323;1256;59656;-40
2023/09/23 08:52:36;;;;;;;6.60;4.00;;;;;;;24.43;45.26;99690.25;107336;1254;60037;-40
2023/09/23 08:55:05;;;;;;;9.00;4.50;;;;;;;24.51;44.91;99687.55;107369;1260;73131;-40
2023/09/23 08:57:33;;;;;;;13.10;4.50;;;;;;;24.56;44.60;99691.83;107369;1254;67877;-39
2023/09/23 09:00:01;;;;;;;12.20;4.30;;;;;;;24.62;44.26;99688.50;107350;1254;71362;-39
2023/09/23 09:02:29;;;;;;;8.70;4.30;;;;;;;24.72;44.08;99690.73;107291;1256;60043;-38
2023/09/23 09:04:58;;;;;;;7.20;4.10;;;;;;;24.83;44.11;99685.54;107269;1257;59578;-39
2023/09/23 09:07:36;;;;;;;8.60;4.10;;;;;;;24.96;43.90;99685.80;107380;1255;73072;-39
2023/09/23 09:10:05;;;;;;;12.00;4.70;;;;;;;25.13;43.59;99688.73;107304;1254;66730;-39
2023/09/23 09:12:33;;;;;;;6.90;4.40;;;;;;;25.26;42.04;99684.67;107323;1255;71822;-39
2023/09/23 09:15:01;;;;;;;8.40;4.50;;;;;;;25.37;41.84;99686.10;107293;1257;59717;-40
2023/09/23 09:17:30;;;;;;;7.80;4.50;;;;;;;25.47;41.63;99689.31;107337;1257;59240;-39
2023/09/23 09:20:00;;;;;;;;;;;;;;;25.56;40.53;99690.83;107181;1254;73046;-40
2023/09/23 09:22:27;;;;;;;9.80;4.70;;;;;;;25.61;40.44;99695.97;107359;1257;67729;-39
2023/09/23 09:24:55;;;;;;;10.30;5.10;;;;;;;25.67;41.04;99698.20;107285;1260;71394;-39
2023/09/23 09:27:23;;;;;;;16.50;4.90;;;;;;;25.75;40.80;99700.75;107280;1258;59638;-39
2023/09/23 09:29:50;;;;;;;10.60;4.20;;;;;;;25.81;40.55;99699.80;107287;1254;60030;-40
2023/09/23 09:32:33;;;;;;;6.50;4.80;;;;;;;25.90;40.77;99694.44;107291;1254;73257;-40
2023/09/23 09:35:02;;;;;;;6.30;4.80;;;;;;;26.00;40.65;99689.08;107295;1254;67600;-39
2023/09/23 09:37:29;;;;;;;8.80;5.30;;;;;;;26.12;40.19;99693.06;107096;1257;72659;-38
2023/09/23 09:39:57;;;;;;;11.40;5.00;;;;;;;26.23;39.85;99698.41;107313;1260;59692;-40
2023/09/23 09:42:30;;;;;;;9.30;5.20;;;;;;;26.32;39.40;99698.70;107296;1255;59529;-40
2023/09/23 09:44:58;;;;;;;7.30;4.70;;;;;;;26.41;39.64;99697.09;107346;1257;72087;-40
2023/09/23 09:47:29;;;;;;;9.20;5.10;;;;;;;26.49;39.15;99695.07;107305;1257;67605;-40
2023/09/23 09:49:56;;;;;;;9.00;4.80;;;;;;;26.58;39.11;99693.52;107332;1254;72631;-40
2023/09/23 09:52:25;;;;;;;9.90;4.90;;;;;;;26.67;38.96;99691.81;107205;1257;60103;-40
2023/09/23 09:54:54;;;;;;;9.30;5.90;;;;;;;26.79;39.19;99696.07;107354;1260;60021;-40
2023/09/23 09:57:22;;;;;;;10.40;4.90;;;;;;;26.93;38.78;99696.23;107347;1260;73042;-40
2023/09/23 09:59:53;;;;;;;9.30;5.30;;;;;;;26.99;37.93;99692.71;107273;1256;66398;-40
2023/09/23 10:02:23;;;;;;;14.00;5.10;;;;;;;27.00;38.17;99685.42;107251;1254;73327;-40
2023/09/23 10:04:53;;;;;;;7.90;5.30;;;;;;;27.01;38.31;99683.47;107280;1257;59630;-40
2023/09/23 10:07:24;;;;;;;7.50;4.90;;;;;;;27.05;37.96;99682.27;107347;1257;59515;-40
2023/09/23 10:09:55;;;;;;;9.70;4.80;;;;;;;27.09;38.21;99687.02;107301;1254;71729;-40
2023/09/23 10:12:26;;;;;;;7.70;4.80;;;;;;;27.14;37.53;99688.54;107323;1260;68354;-40
2023/09/23 10:14:55;;;;;;;8.10;5.00;;;;;;;27.18;37.96;99689.56;107229;1257;71398;-40
2023/09/23 10:17:36;;;;;;;10.80;4.80;;;;;;;27.25;37.72;99688.85;107312;1257;59414;-40
2023/09/23 10:20:13;;;;;;;9.60;4.50;;;;;;;27.37;37.83;99688.34;107285;1254;59993;-41
2023/09/23 10:22:52;;;;;;;8.80;5.20;;;;;;;27.52;37.87;99690.77;107320;1254;72425;-40
2023/09/23 10:25:21;;;;;;;8.40;4.80;;;;;;;27.72;37.55;99690.05;107314;1257;67953;-40
2023/09/23 10:28:00;;;;;;;10.70;4.60;;;;;;;27.88;36.91;99690.61;107281;1254;72683;-40
2023/09/23 10:30:28;;;;;;;6.90;4.60;;;;;;;28.00;36.39;99678.80;107281;1260;60141;-40
2023/09/23 10:32:55;;;;;;;11.20;5.00;;;;;;;28.06;36.54;99671.91;107276;1260;62206;-40
2023/09/23 10:35:23;;;;;;;14.20;4.90;;;;;;;28.16;36.34;99668.45;107287;1257;71555;-40
2023/09/23 10:37:51;;;;;;;12.40;5.20;;;;;;;28.31;36.48;99659.21;107333;1255;68365;-40
2023/09/23 10:40:20;;;;;;;9.80;5.10;;;;;;;28.47;35.93;99658.41;107298;1257;74916;-40
2023/09/23 10:42:48;;;;;;;6.90;4.40;;;;;;;28.65;35.24;99656.30;107279;1260;59858;-40
2023/09/23 10:45:22;;;;;;;11.20;4.30;;;;;;;28.81;35.32;99654.55;107311;1255;60143;-40
2023/09/23 10:47:50;;;;;;;8.20;4.70;;;;;;;29.01;34.78;99654.33;107252;1255;71719;-40
2023/09/23 10:50:18;;;;;;;9.70;4.30;;;;;;;29.18;34.56;99656.72;107328;1257;68060;-40
2023/09/23 10:52:46;;;;;;;9.20;4.20;;;;;;;29.32;33.81;99657.00;107279;1260;72445;-41
2023/09/23 10:55:14;;;;;;;10.00;4.40;;;;;;;29.41;33.69;99657.27;107276;1257;59374;-40
2023/09/23 10:57:42;;;;;;;8.30;4.40;;;;;;;29.50;33.67;99647.67;107287;1257;59565;-40
2023/09/23 11:00:16;;;;;;;7.50;4.20;;;;;;;29.60;33.26;99646.03;107263;1257;71605;-40
2023/09/23 11:02:50;;;;;;;10.00;4.40;;;;;;;29.70;33.55;99637.25;107249;1260;67714;-40
2023/09/23 11:05:20;;;;;;;9.40;4.70;;;;;;;29.87;32.99;99634.54;107293;1260;70721;-40
2023/09/23 11:07:49;;;;;;;8.80;4.70;;;;;;;30.04;33.13;99635.06;107322;1260;62083;-40
2023/09/23 11:10:18;;;;;;;7.90;4.50;;;;;;;30.18;32.77;99631.46;107296;1254;60530;-41
2023/09/23 11:12:46;;;;;;;8.30;4.70;;;;;;;30.31;33.33;99631.79;107279;1255;73989;-40
2023/09/23 11:15:13;;;;;;;9.00;4.30;;;;;;;30.47;32.89;99627.39;107107;1260;68012;-40
2023/09/23 11:17:41;;;;;;;9.80;4.40;;;;;;;30.59;32.77;99625.13;107278;1260;73110;-40
2023/09/23 11:20:10;;;;;;;7.00;4.50;;;;;;;30.74;31.77;99620.62;107293;1256;60437;-40
2023/09/23 11:22:43;;;;;;;10.10;4.70;;;;;;;30.87;31.70;99617.10;107339;1255;60295;-41
2023/09/23 11:25:11;;;;;;;8.50;4.10;;;;;;;30.97;32.23;99607.00;107294;1261;73189;-40
2023/09/23 11:27:40;;;;;;;11.00;4.20;;;;;;;31.15;31.54;99610.51;107348;1260;68258;-41
2023/09/23 11:30:08;;;;;;;10.20;3.70;;;;;;;31.29;30.86;99614.00;107261;1260;74708;-40
2023/09/23 11:32:36;;;;;;;6.00;3.70;;;;;;;31.39;30.79;99616.90;107333;1260;60491;-40